createdAt,value
2019-06-07T00:00:38.064Z,0.00
2019-06-07T00:01:26.257Z,0.00
2019-06-07T00:02:24.270Z,0.00
2019-06-07T00:03:29.897Z,0.00
2019-06-07T00:04:26.766Z,0.00
2019-06-07T00:05:24.840Z,0.00
2019-06-07T00:06:26.024Z,0.00
2019-06-07T00:07:26.280Z,0.00
2019-06-07T00:08:29.023Z,0.00
2019-06-07T00:09:27.263Z,0.00
2019-06-07T00:10:35.793Z,0.00
2019-06-07T00:11:28.788Z,0.00
2019-06-07T00:12:26.764Z,0.00
2019-06-07T00:13:26.240Z,0.00
2019-06-07T00:14:26.406Z,0.00
2019-06-07T00:15:29.026Z,0.00
2019-06-07T00:16:27.761Z,0.00
2019-06-07T00:17:26.923Z,0.00
2019-06-07T00:18:27.068Z,0.00
2019-06-07T00:19:27.222Z,0.00
2019-06-07T00:20:27.381Z,0.00
2019-06-07T00:22:13.015Z,0.00
2019-06-07T00:22:33.469Z,0.00
2019-06-07T00:23:28.897Z,0.00
2019-06-07T00:24:28.152Z,0.00
2019-06-07T00:25:28.302Z,0.00
2019-06-07T00:27:01.961Z,0.00
2019-06-07T00:27:28.682Z,0.00
2019-06-07T00:28:28.932Z,0.00
2019-06-07T00:29:29.080Z,0.00
2019-06-07T00:30:41.209Z,0.00
2019-06-07T00:31:31.344Z,0.00
2019-06-07T00:32:29.525Z,0.00
2019-06-07T00:33:29.776Z,0.00
2019-06-07T00:34:29.998Z,0.00
2019-06-07T00:35:30.093Z,0.00
2019-06-07T00:36:30.329Z,0.00
2019-06-07T00:37:30.458Z,0.00
2019-06-07T00:38:30.591Z,0.00
2019-06-07T00:39:30.826Z,0.00
2019-06-07T00:40:32.270Z,0.00
2019-06-07T00:41:32.280Z,0.00
2019-06-07T00:42:31.408Z,0.00
2019-06-07T00:43:31.633Z,0.00
2019-06-07T00:44:31.920Z,0.00
2019-06-07T00:45:32.057Z,0.00
2019-06-07T00:46:32.204Z,0.00
2019-06-07T00:47:32.334Z,0.00
2019-06-07T00:48:33.261Z,0.00
2019-06-07T00:49:41.052Z,0.00
2019-06-07T00:50:35.790Z,0.00
2019-06-07T00:51:49.641Z,0.00
2019-06-07T00:53:13.180Z,0.00
2019-06-07T00:53:35.353Z,0.00
2019-06-07T00:54:33.528Z,0.00
2019-06-07T00:55:33.699Z,0.00
2019-06-07T00:56:33.862Z,0.00
2019-06-07T00:57:34.039Z,0.00
2019-06-07T00:58:34.236Z,0.00
2019-06-07T00:59:34.429Z,0.00
2019-06-07T01:00:34.581Z,0.00
2019-06-07T01:01:35.299Z,0.00
2019-06-07T01:02:34.957Z,0.00
2019-06-07T01:03:35.129Z,0.00
2019-06-07T01:04:35.273Z,0.00
2019-06-07T01:05:36.279Z,0.00
2019-06-07T01:06:35.660Z,0.00
2019-06-07T01:07:35.811Z,0.00
2019-06-07T01:08:35.944Z,0.00
2019-06-07T01:09:36.228Z,0.00
2019-06-07T01:10:52.956Z,0.00
2019-06-07T01:11:38.485Z,0.00
2019-06-07T01:12:36.780Z,0.00
2019-06-07T01:13:36.905Z,0.00
2019-06-07T01:14:37.123Z,0.00
2019-06-07T01:15:37.316Z,0.00
2019-06-07T01:16:56.398Z,0.00
2019-06-07T01:17:49.993Z,0.00
2019-06-07T01:18:46.071Z,0.00
2019-06-07T01:19:40.005Z,0.00
2019-06-07T01:20:38.261Z,0.00
2019-06-07T01:21:38.406Z,0.00
2019-06-07T01:23:51.965Z,0.00
2019-06-07T01:24:07.928Z,0.00
2019-06-07T01:24:40.837Z,0.00
2019-06-07T01:25:39.146Z,0.00
2019-06-07T01:26:39.286Z,0.00
2019-06-07T01:27:39.465Z,0.00
2019-06-07T01:28:39.668Z,0.00
2019-06-07T01:29:39.847Z,0.00
2019-06-07T01:30:39.991Z,0.00
2019-06-07T01:31:40.156Z,0.00
2019-06-07T01:32:40.324Z,0.00
2019-06-07T01:33:50.763Z,0.00
2019-06-07T01:34:42.692Z,0.00
2019-06-07T01:35:41.830Z,0.00
2019-06-07T01:36:41.128Z,0.00
2019-06-07T01:37:41.339Z,0.00
2019-06-07T01:38:41.498Z,0.00
2019-06-07T01:39:42.358Z,0.00
2019-06-07T01:40:41.852Z,0.00
2019-06-07T01:41:42.001Z,0.00
2019-06-07T01:42:42.155Z,0.00
2019-06-07T01:43:42.283Z,0.00
2019-06-07T01:44:42.415Z,0.00
2019-06-07T01:45:42.566Z,0.00
2019-06-07T01:46:42.707Z,0.00
2019-06-07T01:47:43.359Z,0.00
2019-06-07T01:48:49.337Z,0.00
2019-06-07T01:50:11.220Z,0.00
2019-06-07T01:50:43.397Z,0.00
2019-06-07T01:51:43.676Z,0.00
2019-06-07T01:52:44.333Z,0.00
2019-06-07T01:53:44.023Z,0.00
2019-06-07T01:54:57.887Z,0.00
2019-06-07T01:55:46.350Z,0.00
2019-06-07T01:56:44.572Z,0.00
2019-06-07T01:57:48.398Z,0.00
2019-06-07T01:58:45.861Z,0.00
2019-06-07T01:59:45.003Z,0.00
2019-06-07T02:00:45.135Z,0.00
2019-06-07T02:01:45.247Z,0.00
2019-06-07T02:02:45.525Z,0.00
2019-06-07T02:03:45.683Z,0.00
2019-06-07T02:04:45.844Z,0.00
2019-06-07T02:05:45.987Z,0.00
2019-06-07T02:06:46.120Z,0.00
2019-06-07T02:07:46.253Z,0.00
2019-06-07T02:08:46.866Z,0.00
2019-06-07T02:09:46.601Z,0.00
2019-06-07T02:10:46.739Z,0.00
2019-06-07T02:11:46.886Z,0.00
2019-06-07T02:12:47.019Z,0.00
2019-06-07T02:13:47.841Z,0.00
2019-06-07T02:14:47.330Z,0.00
2019-06-07T02:15:47.465Z,0.00
2019-06-07T02:16:47.594Z,0.00
2019-06-07T02:18:23.207Z,0.00
2019-06-07T02:19:01.225Z,0.00
2019-06-07T02:19:50.394Z,0.00
2019-06-07T02:20:48.221Z,0.00
2019-06-07T02:21:48.929Z,0.00
2019-06-07T02:22:49.360Z,0.00
2019-06-07T02:23:49.361Z,0.00
2019-06-07T02:25:34.160Z,0.00
2019-06-07T02:25:50.753Z,0.00
2019-06-07T02:26:50.864Z,0.00
2019-06-07T02:27:51.432Z,0.00
2019-06-07T02:28:49.656Z,0.00
2019-06-07T02:29:49.912Z,0.00
2019-06-07T02:30:59.524Z,0.00
2019-06-07T02:31:52.387Z,0.00
2019-06-07T02:32:50.898Z,0.00
2019-06-07T02:33:50.433Z,0.00
2019-06-07T02:34:50.630Z,0.00
2019-06-07T02:35:50.793Z,0.00
2019-06-07T02:36:51.025Z,0.00
2019-06-07T02:37:51.187Z,0.00
2019-06-07T02:38:51.370Z,0.00
2019-06-07T02:39:52.376Z,0.00
2019-06-07T02:40:52.404Z,0.00
2019-06-07T02:41:52.928Z,0.00
2019-06-07T02:42:52.900Z,0.00
2019-06-07T02:43:52.324Z,0.00
2019-06-07T02:44:53.388Z,0.00
2019-06-07T02:46:35.195Z,0.00
2019-06-07T02:46:53.781Z,0.00
2019-06-07T02:47:52.880Z,0.00
2019-06-07T02:48:53.016Z,0.00
2019-06-07T02:49:53.137Z,0.00
2019-06-07T02:50:53.301Z,0.00
2019-06-07T02:51:53.520Z,0.00
2019-06-07T02:52:53.670Z,0.00
2019-06-07T02:53:53.821Z,0.00
2019-06-07T02:54:53.974Z,0.00
2019-06-07T02:56:58.968Z,0.00
2019-06-07T02:57:55.538Z,0.00
2019-06-07T02:58:54.701Z,0.00
2019-06-07T03:00:16.588Z,0.00
2019-06-07T03:01:07.547Z,0.00
2019-06-07T03:01:57.246Z,0.00
2019-06-07T03:02:55.901Z,0.00
2019-06-07T03:03:55.561Z,0.00
2019-06-07T03:04:55.723Z,0.00
2019-06-07T03:05:56.416Z,0.00
2019-06-07T03:06:56.387Z,0.00
2019-06-07T03:07:57.273Z,0.00
2019-06-07T03:08:56.396Z,0.00
2019-06-07T03:09:57.569Z,0.00
2019-06-07T03:10:56.715Z,0.00
2019-06-07T03:11:56.927Z,5.62
2019-06-07T03:12:57.078Z,5.62
2019-06-07T03:13:57.235Z,5.62
2019-06-07T03:14:57.390Z,5.62
2019-06-07T03:15:57.551Z,5.62
2019-06-07T03:16:57.696Z,5.62
2019-06-07T03:17:57.842Z,5.62
2019-06-07T03:18:58.015Z,5.62
2019-06-07T03:19:58.161Z,5.62
2019-06-07T03:21:05.397Z,5.62
2019-06-07T03:22:00.433Z,5.62
2019-06-07T03:22:58.633Z,5.62
2019-06-07T03:23:58.802Z,11.25
2019-06-07T03:24:59.933Z,11.25
2019-06-07T03:25:59.174Z,11.25
2019-06-07T03:28:01.645Z,11.25
2019-06-07T03:28:59.877Z,11.25
2019-06-07T03:30:00.028Z,11.25
2019-06-07T03:31:02.904Z,16.88
2019-06-07T03:32:01.926Z,16.88
2019-06-07T03:33:00.513Z,16.88
2019-06-07T03:34:00.927Z,16.88
2019-06-07T03:35:00.794Z,16.88
2019-06-07T03:36:13.060Z,16.88
2019-06-07T03:37:03.122Z,16.88
2019-06-07T03:38:01.312Z,22.50
2019-06-07T03:39:01.936Z,22.50
2019-06-07T03:40:02.025Z,22.50
2019-06-07T03:41:01.882Z,22.50
2019-06-07T03:42:39.628Z,22.50
2019-06-07T03:43:02.928Z,22.50
2019-06-07T03:44:02.395Z,28.12
2019-06-07T03:45:02.930Z,28.12
2019-06-07T03:46:02.657Z,28.12
2019-06-07T03:47:02.793Z,28.12
2019-06-07T03:48:02.930Z,28.12
2019-06-07T03:49:03.161Z,28.12
2019-06-07T03:50:03.233Z,28.12
2019-06-07T03:51:05.002Z,33.75
2019-06-07T03:52:04.612Z,33.75
2019-06-07T03:53:03.734Z,33.75
2019-06-07T03:54:04.969Z,33.75
2019-06-07T03:55:04.467Z,33.75
2019-06-07T03:56:04.453Z,33.75
2019-06-07T03:57:04.730Z,33.75
2019-06-07T03:59:08.001Z,39.38
2019-06-07T04:00:05.446Z,39.38
2019-06-07T04:01:05.447Z,39.38
2019-06-07T04:02:05.506Z,39.38
2019-06-07T04:03:05.676Z,39.38
2019-06-07T04:04:05.865Z,39.38
2019-06-07T04:05:06.940Z,39.38
2019-06-07T04:06:06.179Z,39.38
2019-06-07T04:07:06.319Z,39.38
2019-06-07T04:08:06.940Z,45.00
2019-06-07T04:09:06.582Z,45.00
2019-06-07T04:10:55.712Z,45.00
2019-06-07T04:11:07.853Z,39.38
2019-06-07T04:12:08.095Z,45.00
2019-06-07T04:13:07.305Z,50.62
2019-06-07T04:14:07.445Z,45.00
2019-06-07T04:15:08.517Z,45.00
2019-06-07T04:16:07.799Z,50.62
2019-06-07T04:17:07.964Z,50.62
2019-06-07T04:18:08.972Z,56.25
2019-06-07T04:19:08.476Z,50.62
2019-06-07T04:20:08.499Z,56.25
2019-06-07T04:21:08.831Z,56.25
2019-06-07T04:22:10.486Z,61.88
2019-06-07T04:23:27.403Z,61.88
2019-06-07T04:24:11.153Z,67.50
2019-06-07T04:25:09.969Z,67.50
2019-06-07T04:26:09.498Z,73.12
2019-06-07T04:27:09.642Z,73.12
2019-06-07T04:28:10.009Z,73.12
2019-06-07T04:29:32.413Z,78.75
2019-06-07T04:30:11.213Z,78.75
2019-06-07T04:31:10.317Z,84.38
2019-06-07T04:32:10.492Z,84.38
2019-06-07T04:33:10.981Z,84.38
2019-06-07T04:34:10.880Z,84.38
2019-06-07T04:35:11.054Z,84.38
2019-06-07T04:36:11.219Z,84.38
2019-06-07T04:37:11.332Z,90.00
2019-06-07T04:38:11.484Z,90.00
2019-06-07T04:39:11.603Z,95.62
2019-06-07T04:40:11.746Z,95.62
2019-06-07T04:41:12.466Z,95.62
2019-06-07T04:42:12.051Z,95.62
2019-06-07T04:43:12.187Z,101.25
2019-06-07T04:44:13.013Z,101.25
2019-06-07T04:45:33.103Z,101.25
2019-06-07T04:46:14.691Z,118.12
2019-06-07T04:47:13.472Z,123.75
2019-06-07T04:48:13.101Z,129.38
2019-06-07T04:49:13.273Z,281.25
2019-06-07T04:50:13.444Z,236.25
2019-06-07T04:51:14.121Z,258.75
2019-06-07T04:52:13.825Z,140.62
2019-06-07T04:53:14.008Z,140.62
2019-06-07T04:54:14.094Z,123.75
2019-06-07T04:55:14.987Z,123.75
2019-06-07T04:56:14.497Z,123.75
2019-06-07T04:57:14.671Z,129.38
2019-06-07T04:58:14.985Z,135.00
2019-06-07T05:00:00.151Z,146.25
2019-06-07T05:00:46.839Z,151.88
2019-06-07T05:01:27.253Z,157.50
2019-06-07T05:02:17.546Z,140.62
2019-06-07T05:03:15.790Z,146.25
2019-06-07T05:04:15.951Z,146.25
2019-06-07T05:05:16.972Z,151.88
2019-06-07T05:06:16.373Z,157.50
2019-06-07T05:07:17.504Z,163.12
2019-06-07T05:08:28.177Z,185.62
2019-06-07T05:09:18.758Z,213.75
2019-06-07T05:10:16.885Z,320.62
2019-06-07T05:11:17.513Z,371.25
2019-06-07T05:12:17.267Z,230.62
2019-06-07T05:13:17.432Z,213.75
2019-06-07T05:14:17.579Z,270.00
2019-06-07T05:15:17.999Z,258.75
2019-06-07T05:16:17.896Z,331.88
2019-06-07T05:17:18.079Z,343.12
2019-06-07T05:18:18.305Z,253.12
2019-06-07T05:19:18.464Z,202.50
2019-06-07T05:20:19.467Z,236.25
2019-06-07T05:21:18.863Z,241.88
2019-06-07T05:22:19.068Z,180.00
2019-06-07T05:24:00.281Z,213.75
2019-06-07T05:24:21.436Z,180.00
2019-06-07T05:25:19.653Z,219.38
2019-06-07T05:26:19.823Z,309.38
2019-06-07T05:27:19.991Z,191.25
2019-06-07T05:28:20.169Z,135.00
2019-06-07T05:29:20.345Z,129.38
2019-06-07T05:30:59.483Z,151.88
2019-06-07T05:31:22.702Z,286.88
2019-06-07T05:32:20.846Z,185.62
2019-06-07T05:33:20.988Z,264.38
2019-06-07T05:34:21.136Z,196.88
2019-06-07T05:35:21.262Z,213.75
2019-06-07T05:36:22.980Z,196.88
2019-06-07T05:37:21.623Z,219.38
2019-06-07T05:38:21.756Z,264.38
2019-06-07T05:39:21.897Z,545.62
2019-06-07T05:40:22.022Z,213.75
2019-06-07T05:41:22.168Z,163.12
2019-06-07T05:42:22.330Z,146.25
2019-06-07T05:43:22.464Z,225.00
2019-06-07T05:44:22.633Z,270.00
2019-06-07T05:45:22.761Z,180.00
2019-06-07T05:46:22.883Z,180.00
2019-06-07T05:47:23.038Z,174.38
2019-06-07T05:48:23.195Z,180.00
2019-06-07T05:49:23.984Z,180.00
2019-06-07T05:50:39.243Z,180.00
2019-06-07T05:51:25.734Z,180.00
2019-06-07T05:52:23.848Z,185.62
2019-06-07T05:53:24.008Z,185.62
2019-06-07T05:54:24.152Z,196.88
2019-06-07T05:55:24.272Z,180.00
2019-06-07T05:56:24.523Z,185.62
2019-06-07T05:57:24.668Z,191.25
2019-06-07T05:58:24.833Z,185.62
2019-06-07T05:59:24.957Z,185.62
2019-06-07T06:00:25.198Z,191.25
2019-06-07T06:01:43.109Z,185.62
2019-06-07T06:02:27.425Z,191.25
2019-06-07T06:03:59.097Z,191.25
2019-06-07T06:04:25.799Z,191.25
2019-06-07T06:05:34.394Z,191.25
2019-06-07T06:06:28.260Z,191.25
2019-06-07T06:07:26.470Z,196.88
2019-06-07T06:08:26.625Z,196.88
2019-06-07T06:09:26.838Z,196.88
2019-06-07T06:10:26.995Z,196.88
2019-06-07T06:11:43.328Z,191.25
2019-06-07T06:12:35.174Z,196.88
2019-06-07T06:13:29.597Z,185.62
2019-06-07T06:14:27.860Z,180.00
2019-06-07T06:15:42.266Z,185.62
2019-06-07T06:16:29.517Z,191.25
2019-06-07T06:17:28.523Z,202.50
2019-06-07T06:18:28.664Z,523.12
2019-06-07T06:19:29.035Z,264.38
2019-06-07T06:20:33.201Z,315.00
2019-06-07T06:21:31.090Z,489.38
2019-06-07T06:22:29.286Z,219.38
2019-06-07T06:23:29.488Z,573.75
2019-06-07T06:24:29.656Z,1170.00
2019-06-07T06:25:33.048Z,590.62
2019-06-07T06:26:31.062Z,241.88
2019-06-07T06:28:03.198Z,303.75
2019-06-07T06:28:31.348Z,281.25
2019-06-07T06:29:30.571Z,793.12
2019-06-07T06:30:30.717Z,990.00
2019-06-07T06:31:31.027Z,1411.88
2019-06-07T06:32:41.715Z,3161.25
2019-06-07T06:33:34.815Z,1400.62
2019-06-07T06:34:32.577Z,1231.88
2019-06-07T06:35:32.516Z,315.00
2019-06-07T06:36:31.885Z,292.50
2019-06-07T06:37:33.033Z,995.62
2019-06-07T06:38:32.131Z,2075.62
2019-06-07T06:39:32.271Z,1777.50
2019-06-07T06:40:32.448Z,2385.00
2019-06-07T06:41:46.106Z,1018.12
2019-06-07T06:42:34.826Z,303.75
2019-06-07T06:43:33.045Z,410.62
2019-06-07T06:44:33.181Z,303.75
2019-06-07T06:45:33.324Z,303.75
2019-06-07T06:46:42.046Z,320.62
2019-06-07T06:47:35.621Z,371.25
2019-06-07T06:48:34.520Z,714.38
2019-06-07T06:49:34.520Z,1850.62
2019-06-07T06:50:34.176Z,2598.75
2019-06-07T06:51:34.543Z,1805.62
2019-06-07T06:52:34.462Z,922.50
2019-06-07T06:53:35.533Z,360.00
2019-06-07T06:54:40.555Z,348.75
2019-06-07T06:55:37.043Z,315.00
2019-06-07T06:56:35.133Z,331.88
2019-06-07T06:57:35.295Z,326.25
2019-06-07T06:59:18.369Z,337.50
2019-06-07T06:59:39.505Z,326.25
2019-06-07T07:00:48.975Z,337.50
2019-06-07T07:01:37.543Z,326.25
2019-06-07T07:03:26.945Z,320.62
2019-06-07T07:03:57.401Z,348.75
2019-06-07T07:04:38.386Z,354.38
2019-06-07T07:05:36.605Z,371.25
2019-06-07T07:06:36.755Z,365.62
2019-06-07T07:07:36.870Z,371.25
2019-06-07T07:08:37.527Z,382.50
2019-06-07T07:09:37.152Z,427.50
2019-06-07T07:10:37.306Z,663.75
2019-06-07T07:11:52.341Z,1271.25
2019-06-07T07:12:40.620Z,2041.88
2019-06-07T07:13:37.775Z,1901.25
2019-06-07T07:14:37.918Z,1839.38
2019-06-07T07:15:38.055Z,2351.25
2019-06-07T07:16:39.243Z,1344.38
2019-06-07T07:17:50.876Z,720.00
2019-06-07T07:18:41.757Z,461.25
2019-06-07T07:19:38.762Z,399.38
2019-06-07T07:20:38.894Z,405.00
2019-06-07T07:21:39.073Z,472.50
2019-06-07T07:22:39.591Z,545.62
2019-06-07T07:23:39.379Z,781.88
2019-06-07T07:24:39.544Z,736.88
2019-06-07T07:25:39.743Z,804.38
2019-06-07T07:26:39.923Z,770.62
2019-06-07T07:27:40.132Z,911.25
2019-06-07T07:28:40.292Z,1175.62
2019-06-07T07:29:40.437Z,466.88
2019-06-07T07:30:41.962Z,871.88
2019-06-07T07:31:40.765Z,725.62
2019-06-07T07:32:40.977Z,680.62
2019-06-07T07:34:23.848Z,1153.12
2019-06-07T07:34:46.020Z,759.38
2019-06-07T07:36:05.019Z,630.00
2019-06-07T07:36:44.810Z,691.88
2019-06-07T07:37:43.757Z,793.12
2019-06-07T07:38:48.965Z,1001.25
2019-06-07T07:39:45.310Z,928.12
2019-06-07T07:42:10.836Z,787.50
2019-06-07T07:42:46.895Z,540.00
2019-06-07T07:43:49.225Z,483.75
2019-06-07T07:44:45.029Z,421.88
2019-06-07T07:45:45.909Z,433.12
2019-06-07T07:46:45.011Z,421.88
2019-06-07T07:48:05.485Z,601.88
2019-06-07T07:48:46.022Z,765.00
2019-06-07T07:49:48.476Z,641.25
2019-06-07T07:50:49.758Z,1023.75
2019-06-07T07:51:48.882Z,888.75
2019-06-07T07:52:48.165Z,1158.75
2019-06-07T07:53:54.626Z,871.88
2019-06-07T07:54:46.864Z,1035.00
2019-06-07T07:55:45.763Z,765.00
2019-06-07T07:56:47.025Z,798.75
2019-06-07T07:57:46.633Z,551.25
2019-06-07T07:58:50.326Z,1051.88
2019-06-07T08:00:03.260Z,928.12
2019-06-07T08:00:52.897Z,770.62
2019-06-07T08:01:49.244Z,455.62
2019-06-07T08:02:48.830Z,517.50
2019-06-07T08:03:48.183Z,410.62
2019-06-07T08:05:49.693Z,590.62
2019-06-07T08:06:48.912Z,703.12
2019-06-07T08:07:49.990Z,630.00
2019-06-07T08:08:48.856Z,455.62
2019-06-07T08:09:51.476Z,506.25
2019-06-07T08:10:52.608Z,618.75
2019-06-07T08:11:52.957Z,601.88
2019-06-07T08:13:08.893Z,573.75
2019-06-07T08:13:50.625Z,590.62
2019-06-07T08:14:51.127Z,832.50
2019-06-07T08:15:53.323Z,489.38
2019-06-07T08:16:51.901Z,421.88
2019-06-07T08:17:51.445Z,337.50
2019-06-07T08:18:56.295Z,286.88
2019-06-07T08:19:54.247Z,478.12
2019-06-07T08:21:08.801Z,337.50
2019-06-07T08:21:53.055Z,331.88
2019-06-07T08:22:50.106Z,247.50
2019-06-07T08:23:57.685Z,258.75
2019-06-07T08:24:53.711Z,264.38
2019-06-07T08:25:52.716Z,528.75
2019-06-07T08:27:12.984Z,590.62
2019-06-07T08:27:56.001Z,410.62
2019-06-07T08:28:54.714Z,365.62
2019-06-07T08:30:08.976Z,230.62
2019-06-07T08:30:58.257Z,230.62
2019-06-07T08:31:55.807Z,241.88
2019-06-07T08:32:57.820Z,241.88
2019-06-07T08:33:57.061Z,241.88
2019-06-07T08:34:56.272Z,230.62
2019-06-07T08:36:10.388Z,315.00
2019-06-07T08:36:58.408Z,241.88
2019-06-07T08:38:21.549Z,613.12
2019-06-07T08:38:57.971Z,331.88
2019-06-07T08:39:57.562Z,270.00
2019-06-07T08:40:59.108Z,236.25
2019-06-07T08:42:13.826Z,225.00
2019-06-07T08:43:18.159Z,225.00
2019-06-07T08:43:58.457Z,225.00
2019-06-07T08:45:01.545Z,225.00
2019-06-07T08:46:02.271Z,236.25
2019-06-07T08:47:12.602Z,225.00
2019-06-07T08:48:01.981Z,230.62
2019-06-07T08:49:01.399Z,219.38
2019-06-07T08:50:04.398Z,253.12
2019-06-07T08:51:02.217Z,708.75
2019-06-07T08:52:05.662Z,652.50
2019-06-07T08:53:03.661Z,1175.62
2019-06-07T08:54:18.685Z,1243.12
2019-06-07T08:55:03.384Z,1141.88
2019-06-07T08:56:04.426Z,916.88
2019-06-07T08:57:17.973Z,843.75
2019-06-07T08:58:04.075Z,770.62
2019-06-07T08:59:03.020Z,1372.50
2019-06-07T09:00:06.643Z,410.62
2019-06-07T09:01:07.770Z,669.38
2019-06-07T09:02:03.257Z,433.12
2019-06-07T09:03:05.123Z,326.25
2019-06-07T09:04:06.529Z,348.75
2019-06-07T09:05:06.861Z,343.12
2019-06-07T09:06:06.584Z,438.75
2019-06-07T09:07:09.069Z,568.12
2019-06-07T09:08:23.628Z,382.50
2019-06-07T09:09:03.332Z,551.25
2019-06-07T09:10:08.285Z,416.25
2019-06-07T09:11:06.331Z,382.50
2019-06-07T09:12:08.063Z,360.00
2019-06-07T09:13:09.953Z,427.50
2019-06-07T09:14:08.410Z,286.88
2019-06-07T09:15:14.948Z,309.38
2019-06-07T09:16:08.106Z,343.12
2019-06-07T09:17:08.774Z,264.38
2019-06-07T09:18:37.943Z,298.12
2019-06-07T09:19:10.095Z,275.62
2019-06-07T09:20:10.433Z,309.38
2019-06-07T09:21:08.887Z,388.12
2019-06-07T09:22:10.292Z,320.62
2019-06-07T09:23:15.464Z,331.88
2019-06-07T09:24:09.044Z,236.25
2019-06-07T09:25:14.690Z,225.00
2019-06-07T09:26:15.447Z,225.00
2019-06-07T09:27:07.654Z,303.75
2019-06-07T09:28:14.391Z,208.12
2019-06-07T09:29:08.690Z,208.12
2019-06-07T09:30:15.229Z,213.75
2019-06-07T09:31:09.773Z,213.75
2019-06-07T09:32:10.936Z,281.25
2019-06-07T09:33:07.053Z,264.38
2019-06-07T09:34:13.711Z,275.62
2019-06-07T09:35:11.329Z,241.88
2019-06-07T09:36:10.238Z,247.50
2019-06-07T09:37:54.744Z,230.62
2019-06-07T09:38:18.131Z,247.50
2019-06-07T09:39:10.085Z,247.50
2019-06-07T09:40:21.713Z,258.75
2019-06-07T09:41:08.099Z,253.12
2019-06-07T09:42:10.065Z,270.00
2019-06-07T09:43:55.380Z,225.00
2019-06-07T09:44:21.423Z,213.75
2019-06-07T09:45:11.704Z,225.00
2019-06-07T09:46:12.817Z,208.12
2019-06-07T09:47:30.156Z,213.75
2019-06-07T09:48:13.333Z,236.25
2019-06-07T09:49:18.817Z,219.38
2019-06-07T09:50:12.029Z,219.38
2019-06-07T09:51:19.514Z,219.38
2019-06-07T09:52:11.038Z,247.50
2019-06-07T09:53:21.050Z,196.88
2019-06-07T09:54:11.477Z,219.38
2019-06-07T09:55:23.119Z,208.12
2019-06-07T09:56:12.109Z,208.12
2019-06-07T09:57:16.797Z,208.12
2019-06-07T09:58:48.543Z,202.50
2019-06-07T09:59:12.860Z,202.50
2019-06-07T10:00:37.084Z,191.25
2019-06-07T10:01:13.748Z,202.50
2019-06-07T10:02:13.746Z,202.50
2019-06-07T10:03:20.101Z,196.88
2019-06-07T10:04:28.557Z,258.75
2019-06-07T10:05:14.071Z,219.38
2019-06-07T10:06:13.574Z,281.25
2019-06-07T10:07:30.190Z,191.25
2019-06-07T10:08:54.750Z,230.62
2019-06-07T10:11:12.984Z,196.88
2019-06-07T10:12:11.203Z,191.25
2019-06-07T10:13:11.351Z,275.62
2019-06-07T10:14:11.534Z,191.25
2019-06-07T10:15:11.668Z,196.88
2019-06-07T10:16:11.816Z,196.88
2019-06-07T10:17:11.978Z,196.88
2019-06-07T10:18:12.128Z,208.12
2019-06-07T10:19:12.291Z,196.88
2019-06-07T10:20:12.423Z,225.00
2019-06-07T10:21:15.240Z,213.75
2019-06-07T10:22:14.587Z,258.75
2019-06-07T10:23:13.588Z,208.12
2019-06-07T10:24:13.129Z,208.12
2019-06-07T10:25:13.267Z,213.75
2019-06-07T10:26:14.077Z,275.62
2019-06-07T10:27:14.086Z,258.75
2019-06-07T10:28:13.742Z,202.50
2019-06-07T10:29:14.587Z,253.12
2019-06-07T10:30:14.117Z,196.88
2019-06-07T10:31:14.282Z,202.50
2019-06-07T10:32:14.404Z,247.50
2019-06-07T10:33:14.576Z,225.00
2019-06-07T10:34:14.731Z,196.88
2019-06-07T10:35:16.499Z,253.12
2019-06-07T10:36:16.141Z,191.25
2019-06-07T10:37:15.899Z,180.00
2019-06-07T10:38:16.371Z,264.38
2019-06-07T10:39:15.618Z,253.12
2019-06-07T10:40:15.746Z,258.75
2019-06-07T10:41:16.591Z,258.75
2019-06-07T10:42:16.105Z,253.12
2019-06-07T10:43:17.081Z,225.00
2019-06-07T10:44:16.446Z,191.25
2019-06-07T10:45:16.593Z,225.00
2019-06-07T10:46:16.747Z,202.50
2019-06-07T10:47:16.869Z,191.25
2019-06-07T10:48:16.993Z,247.50
2019-06-07T10:49:18.082Z,180.00
2019-06-07T10:50:17.301Z,208.12
2019-06-07T10:51:17.598Z,185.62
2019-06-07T10:52:17.625Z,185.62
2019-06-07T10:53:17.772Z,225.00
2019-06-07T10:54:27.916Z,213.75
2019-06-07T10:55:20.051Z,208.12
2019-06-07T10:56:18.290Z,202.50
2019-06-07T10:57:18.440Z,208.12
2019-06-07T10:58:18.617Z,213.75
2019-06-07T10:59:18.756Z,219.38
2019-06-07T11:00:18.939Z,213.75
2019-06-07T11:01:19.119Z,202.50
2019-06-07T11:02:19.295Z,185.62
2019-06-07T11:03:19.457Z,185.62
2019-06-07T11:04:20.607Z,180.00
2019-06-07T11:05:19.855Z,185.62
2019-06-07T11:06:20.116Z,191.25
2019-06-07T11:07:21.127Z,185.62
2019-06-07T11:08:21.109Z,196.88
2019-06-07T11:09:20.491Z,180.00
2019-06-07T11:10:20.644Z,180.00
2019-06-07T11:11:20.822Z,180.00
2019-06-07T11:12:21.119Z,185.62
2019-06-07T11:13:22.102Z,180.00
2019-06-07T11:14:21.372Z,180.00
2019-06-07T11:15:21.538Z,191.25
2019-06-07T11:16:21.663Z,185.62
2019-06-07T11:17:21.836Z,185.62
2019-06-07T11:18:21.995Z,185.62
2019-06-07T11:19:22.156Z,180.00
2019-06-07T11:20:22.318Z,196.88
2019-06-07T11:21:22.521Z,180.00
2019-06-07T11:22:23.605Z,191.25
2019-06-07T11:23:22.843Z,191.25
2019-06-07T11:24:24.710Z,185.62
2019-06-07T11:25:24.194Z,185.62
2019-06-07T11:26:23.332Z,196.88
2019-06-07T11:27:24.115Z,191.25
2019-06-07T11:28:23.627Z,185.62
2019-06-07T11:29:24.630Z,185.62
2019-06-07T11:30:24.044Z,180.00
2019-06-07T11:31:25.202Z,185.62
2019-06-07T11:32:24.452Z,185.62
2019-06-07T11:33:24.595Z,185.62
2019-06-07T11:34:24.735Z,191.25
2019-06-07T11:35:25.626Z,191.25
2019-06-07T11:36:25.145Z,191.25
2019-06-07T11:37:25.145Z,191.25
2019-06-07T11:38:26.123Z,191.25
2019-06-07T11:39:25.499Z,196.88
2019-06-07T11:40:34.410Z,191.25
2019-06-07T11:41:27.884Z,191.25
2019-06-07T11:42:26.616Z,191.25
2019-06-07T11:43:26.104Z,191.25
2019-06-07T11:44:26.251Z,191.25
2019-06-07T11:45:27.117Z,196.88
2019-06-07T11:46:26.546Z,196.88
2019-06-07T11:47:27.617Z,196.88
2019-06-07T11:48:27.618Z,196.88
2019-06-07T11:49:27.112Z,196.88
2019-06-07T11:50:28.109Z,196.88
2019-06-07T11:51:27.505Z,208.12
2019-06-07T11:52:27.640Z,196.88
2019-06-07T11:53:27.805Z,208.12
2019-06-07T11:54:28.610Z,208.12
2019-06-07T11:55:28.099Z,208.12
2019-06-07T11:56:28.271Z,213.75
2019-06-07T11:57:29.118Z,208.12
2019-06-07T11:58:28.647Z,230.62
2019-06-07T11:59:29.612Z,208.12
2019-06-07T12:00:29.025Z,202.50
2019-06-07T12:01:29.194Z,213.75
2019-06-07T12:02:30.146Z,208.12
2019-06-07T12:03:29.545Z,213.75
2019-06-07T12:04:34.728Z,219.38
2019-06-07T12:05:31.956Z,213.75
2019-06-07T12:06:30.153Z,208.12
2019-06-07T12:07:30.291Z,219.38
2019-06-07T12:08:30.429Z,219.38
2019-06-07T12:09:30.605Z,219.38
2019-06-07T12:10:42.016Z,219.38
2019-06-07T12:11:31.986Z,225.00
2019-06-07T12:12:31.258Z,230.62
2019-06-07T12:13:32.133Z,225.00
2019-06-07T12:14:32.135Z,230.62
2019-06-07T12:15:31.662Z,225.00
2019-06-07T12:16:32.625Z,225.00
2019-06-07T12:17:31.986Z,230.62
2019-06-07T12:18:32.117Z,230.62
2019-06-07T12:19:32.223Z,236.25
2019-06-07T12:20:33.144Z,230.62
2019-06-07T12:21:32.628Z,230.62
2019-06-07T12:22:32.758Z,230.62
2019-06-07T12:23:33.161Z,225.00
2019-06-07T12:24:33.028Z,225.00
2019-06-07T12:25:33.257Z,230.62
2019-06-07T12:26:33.485Z,230.62
2019-06-07T12:27:34.142Z,230.62
2019-06-07T12:28:33.874Z,241.88
2019-06-07T12:29:34.138Z,247.50
2019-06-07T12:30:35.143Z,253.12
2019-06-07T12:31:34.493Z,247.50
2019-06-07T12:32:34.609Z,236.25
2019-06-07T12:33:34.832Z,247.50
2019-06-07T12:34:34.867Z,241.88
2019-06-07T12:35:35.644Z,253.12
2019-06-07T12:36:35.160Z,253.12
2019-06-07T12:37:43.800Z,258.75
2019-06-07T12:38:37.560Z,247.50
2019-06-07T12:39:35.762Z,253.12
2019-06-07T12:40:35.921Z,253.12
2019-06-07T12:41:36.045Z,247.50
2019-06-07T12:42:36.196Z,247.50
2019-06-07T12:43:37.151Z,253.12
2019-06-07T12:44:37.135Z,247.50
2019-06-07T12:45:44.901Z,163.12
2019-06-07T12:46:38.908Z,253.12
2019-06-07T12:47:37.027Z,247.50
2019-06-07T12:48:37.683Z,253.12
2019-06-07T12:49:37.676Z,253.12
2019-06-07T12:50:43.010Z,258.75
2019-06-07T12:51:40.628Z,258.75